sensor_id;sensor_type;location;lat;lon;timestamp;pressure;altitude;pressure_sealevel;temperature;humidity
13690;BME280;6917;52.194;9.894;2022-08-18T00:01:38;99959.50;;;20.24;82.70
13690;BME280;6917;52.194;9.894;2022-08-18T00:04:05;99967.50;;;20.32;82.60
13690;BME280;6917;52.194;9.894;2022-08-18T00:06:31;99975.47;;;20.41;82.51
13690;BME280;6917;52.194;9.894;2022-08-18T00:08:57;99965.91;;;20.38;82.41
13690;BME280;6917;52.194;9.894;2022-08-18T00:11:24;99969.88;;;20.34;82.84
13690;BME280;6917;52.194;9.894;2022-08-18T00:13:50;99968.28;;;20.33;83.19
13690;BME280;6917;52.194;9.894;2022-08-18T00:16:15;99969.09;;;20.37;83.11
13690;BME280;6917;52.194;9.894;2022-08-18T00:18:40;99959.66;;;20.41;83.17
13690;BME280;6917;52.194;9.894;2022-08-18T00:21:06;99960.44;;;20.45;83.53
13690;BME280;6917;52.194;9.894;2022-08-18T00:23:31;99967.97;;;20.45;83.86
13690;BME280;6917;52.194;9.894;2022-08-18T00:25:57;99970.34;;;20.43;83.64
13690;BME280;6917;52.194;9.894;2022-08-18T00:28:24;99961.56;;;20.37;84.08
13690;BME280;6917;52.194;9.894;2022-08-18T00:30:50;99967.50;;;20.36;84.78
13690;BME280;6917;52.194;9.894;2022-08-18T00:33:15;99971.84;;;20.33;85.53
13690;BME280;6917;52.194;9.894;2022-08-18T00:35:40;99967.09;;;20.30;85.98
13690;BME280;6917;52.194;9.894;2022-08-18T00:38:07;99961.53;;;20.27;86.85
13690;BME280;6917;52.194;9.894;2022-08-18T00:40:39;99960.31;;;20.24;87.39
13690;BME280;6917;52.194;9.894;2022-08-18T00:43:07;99972.19;;;20.21;87.92
13690;BME280;6917;52.194;9.894;2022-08-18T00:45:35;99976.91;;;20.17;88.59
13690;BME280;6917;52.194;9.894;2022-08-18T00:48:07;99971.75;;;20.15;88.94
13690;BME280;6917;52.194;9.894;2022-08-18T00:50:38;99976.50;;;20.11;89.41
13690;BME280;6917;52.194;9.894;2022-08-18T00:53:33;99976.06;;;20.06;90.13
13690;BME280;6917;52.194;9.894;2022-08-18T00:56:05;99976.44;;;20.04;90.41
13690;BME280;6917;52.194;9.894;2022-08-18T00:58:41;99977.22;;;20.01;91.01
13690;BME280;6917;52.194;9.894;2022-08-18T01:01:08;99978.00;;;19.98;91.35
13690;BME280;6917;52.194;9.894;2022-08-18T01:03:37;99969.63;;;19.95;91.87
13690;BME280;6917;52.194;9.894;2022-08-18T01:06:49;99966.84;;;19.91;91.98
13690;BME280;6917;52.194;9.894;2022-08-18T01:09:12;99972.00;;;19.92;92.29
13690;BME280;6917;52.194;9.894;2022-08-18T01:11:38;99974.34;;;19.87;92.90
13690;BME280;6917;52.194;9.894;2022-08-18T01:14:05;99968.00;;;19.86;93.31
13690;BME280;6917;52.194;9.894;2022-08-18T01:16:32;99974.34;;;19.83;93.62
13690;BME280;6917;52.194;9.894;2022-08-18T01:19:18;99971.91;;;19.78;94.00
13690;BME280;6917;52.194;9.894;2022-08-18T01:22:12;99973.06;;;19.74;94.78
13690;BME280;6917;52.194;9.894;2022-08-18T01:24:41;99973.44;;;19.69;95.62
13690;BME280;6917;52.194;9.894;2022-08-18T01:27:26;99961.09;;;19.63;96.45
13690;BME280;6917;52.194;9.894;2022-08-18T01:29:56;99964.66;;;19.59;97.21
13690;BME280;6917;52.194;9.894;2022-08-18T01:32:23;99951.19;;;19.58;97.94
13690;BME280;6917;52.194;9.894;2022-08-18T01:34:50;99968.59;;;19.55;98.56
13690;BME280;6917;52.194;9.894;2022-08-18T01:37:18;99970.47;;;19.51;99.24
13690;BME280;6917;52.194;9.894;2022-08-18T01:39:44;99972.50;;;19.54;99.54
13690;BME280;6917;52.194;9.894;2022-08-18T01:42:12;99971.25;;;19.51;99.75
13690;BME280;6917;52.194;9.894;2022-08-18T01:44:38;99971.34;;;19.55;100.00
13690;BME280;6917;52.194;9.894;2022-08-18T01:47:06;99967.78;;;19.54;100.00
13690;BME280;6917;52.194;9.894;2022-08-18T01:49:32;99973.31;;;19.54;100.00
13690;BME280;6917;52.194;9.894;2022-08-18T01:51:57;99965.41;;;19.56;100.00
13690;BME280;6917;52.194;9.894;2022-08-18T01:54:22;99972.97;;;19.59;100.00
13690;BME280;6917;52.194;9.894;2022-08-18T01:56:48;99970.22;;;19.63;100.00
13690;BME280;6917;52.194;9.894;2022-08-18T01:59:13;99967.03;;;19.61;100.00
13690;BME280;6917;52.194;9.894;2022-08-18T02:01:42;99965.81;;;19.58;100.00
13690;BME280;6917;52.194;9.894;2022-08-18T02:04:08;99971.72;;;19.53;100.00
13690;BME280;6917;52.194;9.894;2022-08-18T02:06:34;99969.28;;;19.48;100.00
13690;BME280;6917;52.194;9.894;2022-08-18T02:09:00;99968.47;;;19.48;100.00
13690;BME280;6917;52.194;9.894;2022-08-18T02:11:26;99970.03;;;19.45;100.00
13690;BME280;6917;52.194;9.894;2022-08-18T02:13:51;99970.44;;;19.47;100.00
13690;BME280;6917;52.194;9.894;2022-08-18T02:16:17;99968.47;;;19.48;100.00
13690;BME280;6917;52.194;9.894;2022-08-18T02:18:42;99972.03;;;19.48;100.00
13690;BME280;6917;52.194;9.894;2022-08-18T02:21:12;99972.44;;;19.50;100.00
13690;BME280;6917;52.194;9.894;2022-08-18T02:23:39;99972.44;;;19.50;100.00
13690;BME280;6917;52.194;9.894;2022-08-18T02:26:09;99968.50;;;19.51;100.00
13690;BME280;6917;52.194;9.894;2022-08-18T02:28:35;99978.00;;;19.50;100.00
13690;BME280;6917;52.194;9.894;2022-08-18T02:31:05;99974.44;;;19.50;100.00
13690;BME280;6917;52.194;9.894;2022-08-18T02:33:32;99982.72;;;19.46;100.00
13690;BME280;6917;52.194;9.894;2022-08-18T02:35:58;99977.53;;;19.41;100.00
13690;BME280;6917;52.194;9.894;2022-08-18T02:38:23;99978.66;;;19.37;100.00
13690;BME280;6917;52.194;9.894;2022-08-18T02:40:59;99978.63;;;19.33;100.00
13690;BME280;6917;52.194;9.894;2022-08-18T02:43:25;99981.78;;;19.31;100.00
13690;BME280;6917;52.194;9.894;2022-08-18T02:45:51;99978.22;;;19.31;100.00
13690;BME280;6917;52.194;9.894;2022-08-18T02:48:17;99976.63;;;19.30;100.00
13690;BME280;6917;52.194;9.894;2022-08-18T02:51:05;99981.34;;;19.26;100.00
13690;BME280;6917;52.194;9.894;2022-08-18T02:53:31;99976.56;;;19.23;100.00
13690;BME280;6917;52.194;9.894;2022-08-18T02:56:08;99984.03;;;19.19;100.00
13690;BME280;6917;52.194;9.894;2022-08-18T02:58:59;99976.50;;;19.16;100.00
13690;BME280;6917;52.194;9.894;2022-08-18T03:01:28;99976.09;;;19.14;100.00
13690;BME280;6917;52.194;9.894;2022-08-18T03:03:55;99963.00;;;19.11;100.00
13690;BME280;6917;52.194;9.894;2022-08-18T03:06:22;99978.34;;;19.05;100.00
13690;BME280;6917;52.194;9.894;2022-08-18T03:08:47;99973.97;;;19.00;100.00
13690;BME280;6917;52.194;9.894;2022-08-18T03:11:19;99981.81;;;18.94;100.00
13690;BME280;6917;52.194;9.894;2022-08-18T03:13:46;99986.09;;;18.88;100.00
13690;BME280;6917;52.194;9.894;2022-08-18T03:16:12;99982.91;;;18.86;100.00
13690;BME280;6917;52.194;9.894;2022-08-18T03:18:37;99988.03;;;18.84;100.00
13690;BME280;6917;52.194;9.894;2022-08-18T03:21:13;99984.47;;;18.84;100.00
13690;BME280;6917;52.194;9.894;2022-08-18T03:23:39;99984.84;;;18.82;100.00
13690;BME280;6917;52.194;9.894;2022-08-18T03:26:06;99984.47;;;18.84;100.00
13690;BME280;6917;52.194;9.894;2022-08-18T03:28:35;99982.88;;;18.83;100.00
13690;BME280;6917;52.194;9.894;2022-08-18T03:31:01;99974.16;;;18.81;100.00
13690;BME280;6917;52.194;9.894;2022-08-18T03:33:26;99975.31;;;18.80;100.00
13690;BME280;6917;52.194;9.894;2022-08-18T03:35:51;99974.97;;;18.81;100.00
13690;BME280;6917;52.194;9.894;2022-08-18T03:38:16;99977.72;;;18.81;100.00
13690;BME280;6917;52.194;9.894;2022-08-18T03:40:42;99971.81;;;18.83;100.00
13690;BME280;6917;52.194;9.894;2022-08-18T03:43:07;99978.56;;;18.85;100.00
13690;BME280;6917;52.194;9.894;2022-08-18T03:45:33;99977.78;;;18.88;100.00
13690;BME280;6917;52.194;9.894;2022-08-18T03:48:00;99973.84;;;18.89;100.00
13690;BME280;6917;52.194;9.894;2022-08-18T03:50:29;99982.56;;;18.91;100.00
13690;BME280;6917;52.194;9.894;2022-08-18T03:52:54;99985.34;;;18.91;100.00
13690;BME280;6917;52.194;9.894;2022-08-18T03:55:23;99985.34;;;18.91;100.00
13690;BME280;6917;52.194;9.894;2022-08-18T03:57:49;99989.31;;;18.94;100.00
13690;BME280;6917;52.194;9.894;2022-08-18T04:00:17;99988.09;;;18.91;100.00
13690;BME280;6917;52.194;9.894;2022-08-18T04:02:42;99992.44;;;18.89;100.00
13690;BME280;6917;52.194;9.894;2022-08-18T04:05:08;99985.31;;;18.88;100.00
13690;BME280;6917;52.194;9.894;2022-08-18T04:07:35;100003.84;;;18.84;100.00
13690;BME280;6917;52.194;9.894;2022-08-18T04:10:01;99991.56;;;18.81;100.00
13690;BME280;6917;52.194;9.894;2022-08-18T04:12:26;100009.78;;;18.82;100.00
13690;BME280;6917;52.194;9.894;2022-08-18T04:14:51;100006.22;;;18.85;100.00
13690;BME280;6917;52.194;9.894;2022-08-18T04:17:19;100013.38;;;18.86;100.00
13690;BME280;6917;52.194;9.894;2022-08-18T04:19:49;100016.91;;;18.83;100.00
13690;BME280;6917;52.194;9.894;2022-08-18T04:22:16;100014.91;;;18.84;100.00
13690;BME280;6917;52.194;9.894;2022-08-18T04:24:41;100021.25;;;18.84;100.00
13690;BME280;6917;52.194;9.894;2022-08-18T04:27:07;100024.81;;;18.85;100.00
13690;BME280;6917;52.194;9.894;2022-08-18T04:29:33;100025.63;;;18.85;100.00
13690;BME280;6917;52.194;9.894;2022-08-18T04:32:00;100030.38;;;18.88;100.00
13690;BME280;6917;52.194;9.894;2022-08-18T04:34:29;100030.38;;;18.88;100.00
13690;BME280;6917;52.194;9.894;2022-08-18T04:36:54;100040.28;;;18.89;100.00
13690;BME280;6917;52.194;9.894;2022-08-18T04:39:21;100044.34;;;18.95;100.00
13690;BME280;6917;52.194;9.894;2022-08-18T04:41:47;100043.97;;;19.00;100.00
13690;BME280;6917;52.194;9.894;2022-08-18T04:44:13;100038.84;;;19.02;100.00
13690;BME280;6917;52.194;9.894;2022-08-18T04:46:47;100030.19;;;19.08;100.00
13690;BME280;6917;52.194;9.894;2022-08-18T04:49:13;100035.34;;;19.09;100.00
13690;BME280;6917;52.194;9.894;2022-08-18T04:51:50;100034.63;;;19.12;100.00
13690;BME280;6917;52.194;9.894;2022-08-18T04:54:36;100036.63;;;19.15;100.00
13690;BME280;6917;52.194;9.894;2022-08-18T04:57:15;100031.47;;;19.14;100.00
13690;BME280;6917;52.194;9.894;2022-08-18T04:59:43;100030.69;;;19.13;100.00
13690;BME280;6917;52.194;9.894;2022-08-18T05:02:10;100024.34;;;19.13;100.00
13690;BME280;6917;52.194;9.894;2022-08-18T05:04:37;100036.97;;;19.10;100.00
13690;BME280;6917;52.194;9.894;2022-08-18T05:07:05;100034.16;;;19.07;100.00
13690;BME280;6917;52.194;9.894;2022-08-18T05:09:32;100029.00;;;19.05;100.00
13690;BME280;6917;52.194;9.894;2022-08-18T05:11:58;100038.84;;;19.02;100.00
13690;BME280;6917;52.194;9.894;2022-08-18T05:14:25;100047.94;;;18.99;100.00
13690;BME280;6917;52.194;9.894;2022-08-18T05:16:50;100034.41;;;18.94;100.00
13690;BME280;6917;52.194;9.894;2022-08-18T05:19:18;100041.09;;;18.90;100.00
13690;BME280;6917;52.194;9.894;2022-08-18T05:21:46;100048.59;;;18.89;100.00
13690;BME280;6917;52.194;9.894;2022-08-18T05:24:11;100040.66;;;18.88;100.00
13690;BME280;6917;52.194;9.894;2022-08-18T05:26:37;100043.06;;;18.89;100.00
13690;BME280;6917;52.194;9.894;2022-08-18T05:29:02;100035.94;;;18.88;100.00
13690;BME280;6917;52.194;9.894;2022-08-18T05:31:28;100037.13;;;18.91;100.00
13690;BME280;6917;52.194;9.894;2022-08-18T05:33:55;100044.69;;;18.94;100.00
13690;BME280;6917;52.194;9.894;2022-08-18T05:39:06;100051.47;;;18.96;100.00
13690;BME280;6917;52.194;9.894;2022-08-18T05:41:38;100051.06;;;18.98;100.00
13690;BME280;6917;52.194;9.894;2022-08-18T05:44:06;100042.38;;;18.99;100.00
13690;BME280;6917;52.194;9.894;2022-08-18T05:49:07;100059.06;;;19.07;100.00
13690;BME280;6917;52.194;9.894;2022-08-18T05:51:40;100063.13;;;19.13;100.00
13690;BME280;6917;52.194;9.894;2022-08-18T05:54:07;100060.00;;;19.18;100.00
13690;BME280;6917;52.194;9.894;2022-08-18T05:56:53;100069.56;;;19.24;100.00
13690;BME280;6917;52.194;9.894;2022-08-18T05:59:31;100062.88;;;19.28;100.00
13690;BME280;6917;52.194;9.894;2022-08-18T06:02:20;100067.28;;;19.33;100.00
13690;BME280;6917;52.194;9.894;2022-08-18T06:04:55;100072.47;;;19.38;100.00
13690;BME280;6917;52.194;9.894;2022-08-18T06:07:56;100068.59;;;19.43;100.00
13690;BME280;6917;52.194;9.894;2022-08-18T06:10:22;100066.63;;;19.47;100.00
13690;BME280;6917;52.194;9.894;2022-08-18T06:12:51;100068.25;;;19.51;100.00
13690;BME280;6917;52.194;9.894;2022-08-18T06:15:25;100071.53;;;19.57;100.00
13690;BME280;6917;52.194;9.894;2022-08-18T06:23:20;100073.22;;;19.69;100.00
13690;BME280;6917;52.194;9.894;2022-08-18T06:26:13;100064.53;;;19.70;100.00
13690;BME280;6917;52.194;9.894;2022-08-18T06:31:44;100071.81;;;19.89;100.00
13690;BME280;6917;52.194;9.894;2022-08-18T06:34:30;100081.44;;;20.02;100.00
13690;BME280;6917;52.194;9.894;2022-08-18T06:37:06;100071.94;;;20.07;100.00
13690;BME280;6917;52.194;9.894;2022-08-18T06:39:49;100087.00;;;20.09;100.00
13690;BME280;6917;52.194;9.894;2022-08-18T06:42:20;100090.59;;;20.10;100.00
13690;BME280;6917;52.194;9.894;2022-08-18T06:44:52;100086.31;;;20.19;100.00
13690;BME280;6917;52.194;9.894;2022-08-18T06:47:39;100080.41;;;20.25;100.00
13690;BME280;6917;52.194;9.894;2022-08-18T06:52:37;100097.88;;;20.29;100.00
13690;BME280;6917;52.194;9.894;2022-08-18T06:55:10;100092.72;;;20.27;100.00
13690;BME280;6917;52.194;9.894;2022-08-18T06:58:03;100101.03;;;20.27;100.00
13690;BME280;6917;52.194;9.894;2022-08-18T07:00:33;100090.34;;;20.29;100.00
13690;BME280;6917;52.194;9.894;2022-08-18T07:03:04;100104.25;;;20.33;100.00
13690;BME280;6917;52.194;9.894;2022-08-18T07:05:34;100102.28;;;20.37;100.00
13690;BME280;6917;52.194;9.894;2022-08-18T07:08:21;100108.31;;;20.42;100.00
13690;BME280;6917;52.194;9.894;2022-08-18T07:10:53;100115.09;;;20.52;99.43
13690;BME280;6917;52.194;9.894;2022-08-18T07:13:27;100115.97;;;20.60;96.68
13690;BME280;6917;52.194;9.894;2022-08-18T07:18:52;100114.03;;;20.71;93.55
13690;BME280;6917;52.194;9.894;2022-08-18T07:21:29;100110.50;;;20.74;93.26
13690;BME280;6917;52.194;9.894;2022-08-18T07:24:05;100116.84;;;20.74;93.05
13690;BME280;6917;52.194;9.894;2022-08-18T07:29:25;100121.31;;;20.97;92.71
13690;BME280;6917;52.194;9.894;2022-08-18T07:31:53;100125.72;;;21.01;91.80
13690;BME280;6917;52.194;9.894;2022-08-18T07:34:23;100130.88;;;21.03;90.09
13690;BME280;6917;52.194;9.894;2022-08-18T07:37:01;100116.25;;;21.13;90.51
13690;BME280;6917;52.194;9.894;2022-08-18T07:39:50;100128.16;;;21.21;89.71
13690;BME280;6917;52.194;9.894;2022-08-18T07:45:11;100132.25;;;21.48;89.03
13690;BME280;6917;52.194;9.894;2022-08-18T07:47:56;100129.88;;;21.54;88.82
13690;BME280;6917;52.194;9.894;2022-08-18T07:50:25;100134.28;;;21.65;88.34
13690;BME280;6917;52.194;9.894;2022-08-18T07:53:18;100135.03;;;21.52;87.46
13690;BME280;6917;52.194;9.894;2022-08-18T07:55:51;100128.28;;;21.53;87.48
13690;BME280;6917;52.194;9.894;2022-08-18T07:58:30;100127.53;;;21.56;87.26
13690;BME280;6917;52.194;9.894;2022-08-18T08:03:56;100129.13;;;21.60;86.18
13690;BME280;6917;52.194;9.894;2022-08-18T08:06:41;100133.09;;;21.59;85.85
13690;BME280;6917;52.194;9.894;2022-08-18T08:12:03;100127.88;;;21.47;85.13
13690;BME280;6917;52.194;9.894;2022-08-18T08:14:45;100129.47;;;21.52;86.82
13690;BME280;6917;52.194;9.894;2022-08-18T08:25:57;100131.53;;;21.76;85.52
13690;BME280;6917;52.194;9.894;2022-08-18T08:28:46;100140.69;;;21.91;84.59
13690;BME280;6917;52.194;9.894;2022-08-18T08:31:27;100131.56;;;22.05;84.36
13690;BME280;6917;52.194;9.894;2022-08-18T08:34:19;100132.41;;;22.16;83.99
13690;BME280;6917;52.194;9.894;2022-08-18T08:36:52;100128.41;;;22.17;82.66
13690;BME280;6917;52.194;9.894;2022-08-18T08:39:26;100128.41;;;22.20;82.55
13690;BME280;6917;52.194;9.894;2022-08-18T08:42:05;100143.53;;;22.34;81.98
13690;BME280;6917;52.194;9.894;2022-08-18T08:44:38;100138.72;;;22.41;81.83
13690;BME280;6917;52.194;9.894;2022-08-18T08:50:26;100132.75;;;22.39;84.24
13690;BME280;6917;52.194;9.894;2022-08-18T08:53:06;100138.75;;;22.38;84.67
13690;BME280;6917;52.194;9.894;2022-08-18T08:55:43;100139.94;;;22.22;84.83
13690;BME280;6917;52.194;9.894;2022-08-18T08:58:19;100131.59;;;22.22;84.98
13690;BME280;6917;52.194;9.894;2022-08-18T09:00:48;100125.25;;;22.15;84.68
13690;BME280;6917;52.194;9.894;2022-08-18T09:03:23;100123.22;;;22.40;84.21
13690;BME280;6917;52.194;9.894;2022-08-18T09:16:41;100142.69;;;22.72;81.05
13690;BME280;6917;52.194;9.894;2022-08-18T09:22:15;100151.44;;;22.74;81.02
13690;BME280;6917;52.194;9.894;2022-08-18T09:24:52;100148.25;;;22.62;81.20
13690;BME280;6917;52.194;9.894;2022-08-18T09:29:52;100146.69;;;22.50;81.06
13690;BME280;6917;52.194;9.894;2022-08-18T09:37:21;100145.91;;;22.28;80.06
13690;BME280;6917;52.194;9.894;2022-08-18T09:40:10;100145.09;;;22.35;81.51
13690;BME280;6917;52.194;9.894;2022-08-18T09:43:12;100154.25;;;22.42;80.95
13690;BME280;6917;52.194;9.894;2022-08-18T09:45:52;100151.06;;;22.40;80.29
13690;BME280;6917;52.194;9.894;2022-08-18T09:48:36;100151.84;;;22.55;80.55
13690;BME280;6917;52.194;9.894;2022-08-18T09:56:16;100161.75;;;22.70;79.96
13690;BME280;6917;52.194;9.894;2022-08-18T09:58:58;100163.34;;;22.78;78.69
13690;BME280;6917;52.194;9.894;2022-08-18T10:01:35;100150.63;;;22.88;77.97
13690;BME280;6917;52.194;9.894;2022-08-18T10:06:40;100150.97;;;23.08;77.50
13690;BME280;6917;52.194;9.894;2022-08-18T10:14:57;100148.91;;;23.30;73.80
13690;BME280;6917;52.194;9.894;2022-08-18T10:20:41;100157.25;;;23.30;75.64
13690;BME280;6917;52.194;9.894;2022-08-18T10:29:07;100146.88;;;23.34;74.79
13690;BME280;6917;52.194;9.894;2022-08-18T10:34:50;100151.59;;;23.48;73.21
13690;BME280;6917;52.194;9.894;2022-08-18T10:37:24;100152.75;;;23.54;71.91
13690;BME280;6917;52.194;9.894;2022-08-18T10:39:55;100145.97;;;23.62;70.50
13690;BME280;6917;52.194;9.894;2022-08-18T10:42:26;100139.81;;;23.88;70.83
13690;BME280;6917;52.194;9.894;2022-08-18T10:45:04;100134.84;;;24.14;72.56
13690;BME280;6917;52.194;9.894;2022-08-18T10:47:30;100131.53;;;24.29;71.50
13690;BME280;6917;52.194;9.894;2022-08-18T10:49:57;100132.25;;;24.41;70.56
13690;BME280;6917;52.194;9.894;2022-08-18T10:55:43;100148.69;;;24.31;69.52
13690;BME280;6917;52.194;9.894;2022-08-18T11:01:08;100154.69;;;24.26;69.08
13690;BME280;6917;52.194;9.894;2022-08-18T11:06:08;100139.88;;;24.37;68.11
13690;BME280;6917;52.194;9.894;2022-08-18T11:08:43;100138.88;;;24.09;68.30
13690;BME280;6917;52.194;9.894;2022-08-18T11:11:11;100140.19;;;24.46;69.11
13690;BME280;6917;52.194;9.894;2022-08-18T11:13:47;100143.13;;;24.69;68.25
13690;BME280;6917;52.194;9.894;2022-08-18T11:18:45;100138.97;;;24.84;65.09
13690;BME280;6917;52.194;9.894;2022-08-18T11:21:29;100132.56;;;24.87;66.34
13690;BME280;6917;52.194;9.894;2022-08-18T11:24:18;100133.75;;;24.90;65.70
13690;BME280;6917;52.194;9.894;2022-08-18T11:34:39;100122.09;;;25.29;64.10
13690;BME280;6917;52.194;9.894;2022-08-18T11:37:23;100126.06;;;25.62;64.16
13690;BME280;6917;52.194;9.894;2022-08-18T11:39:54;100128.72;;;25.73;63.33
13690;BME280;6917;52.194;9.894;2022-08-18T11:42:29;100124.38;;;25.68;63.77
13690;BME280;6917;52.194;9.894;2022-08-18T11:45:15;100115.00;;;25.82;64.24
13690;BME280;6917;52.194;9.894;2022-08-18T11:50:48;100118.50;;;25.90;59.79
13690;BME280;6917;52.194;9.894;2022-08-18T11:56:02;100101.25;;;25.91;58.80
13690;BME280;6917;52.194;9.894;2022-08-18T12:01:53;100090.00;;;25.95;60.26
13690;BME280;6917;52.194;9.894;2022-08-18T12:09:38;100083.72;;;26.10;61.78
13690;BME280;6917;52.194;9.894;2022-08-18T12:14:32;100087.00;;;25.82;61.29
13690;BME280;6917;52.194;9.894;2022-08-18T12:16:59;100076.44;;;25.93;61.73
13690;BME280;6917;52.194;9.894;2022-08-18T12:19:24;100074.72;;;25.76;60.77
13690;BME280;6917;52.194;9.894;2022-08-18T12:21:55;100079.72;;;25.61;61.10
13690;BME280;6917;52.194;9.894;2022-08-18T12:24:31;100080.06;;;25.63;62.03
13690;BME280;6917;52.194;9.894;2022-08-18T12:26:57;100082.16;;;25.56;61.76
13690;BME280;6917;52.194;9.894;2022-08-18T12:29:24;100086.66;;;25.49;60.47
13690;BME280;6917;52.194;9.894;2022-08-18T12:31:52;100082.81;;;25.40;60.29
13690;BME280;6917;52.194;9.894;2022-08-18T12:34:20;100086.44;;;25.37;60.54
13690;BME280;6917;52.194;9.894;2022-08-18T12:36:49;100085.97;;;25.42;62.12
13690;BME280;6917;52.194;9.894;2022-08-18T12:39:14;100082.22;;;25.25;63.36
13690;BME280;6917;52.194;9.894;2022-08-18T12:41:40;100085.97;;;25.42;63.28
13690;BME280;6917;52.194;9.894;2022-08-18T12:44:05;100083.66;;;25.64;63.55
13690;BME280;6917;52.194;9.894;2022-08-18T12:46:30;100082.69;;;25.77;61.06
13690;BME280;6917;52.194;9.894;2022-08-18T12:48:56;100081.56;;;25.71;61.43
13690;BME280;6917;52.194;9.894;2022-08-18T12:51:21;100085.66;;;25.63;61.05
13690;BME280;6917;52.194;9.894;2022-08-18T12:53:47;100084.44;;;25.64;61.72
13690;BME280;6917;52.194;9.894;2022-08-18T12:56:23;100077.22;;;25.67;62.27
13690;BME280;6917;52.194;9.894;2022-08-18T12:58:49;100069.19;;;25.42;62.46
13690;BME280;6917;52.194;9.894;2022-08-18T13:01:18;100062.50;;;25.05;63.07
13690;BME280;6917;52.194;9.894;2022-08-18T13:03:46;100065.75;;;25.00;63.38
13690;BME280;6917;52.194;9.894;2022-08-18T13:06:13;100057.81;;;24.95;62.73
13690;BME280;6917;52.194;9.894;2022-08-18T13:08:39;100061.34;;;25.03;63.47
13690;BME280;6917;52.194;9.894;2022-08-18T13:11:05;100065.84;;;25.24;63.58
13690;BME280;6917;52.194;9.894;2022-08-18T13:13:37;100066.31;;;25.45;62.44
13690;BME280;6917;52.194;9.894;2022-08-18T13:16:05;100073.03;;;25.51;62.82
13690;BME280;6917;52.194;9.894;2022-08-18T13:18:32;100080.50;;;25.62;63.47
13690;BME280;6917;52.194;9.894;2022-08-18T13:20:57;100077.31;;;25.60;61.30
13690;BME280;6917;52.194;9.894;2022-08-18T13:23:23;100072.78;;;25.42;62.31
13690;BME280;6917;52.194;9.894;2022-08-18T13:25:48;100061.34;;;25.33;62.33
13690;BME280;6917;52.194;9.894;2022-08-18T13:28:14;100061.09;;;25.20;62.42
13690;BME280;6917;52.194;9.894;2022-08-18T13:30:39;100066.13;;;25.02;62.12
13690;BME280;6917;52.194;9.894;2022-08-18T13:33:06;100064.22;;;25.26;63.20
13690;BME280;6917;52.194;9.894;2022-08-18T13:35:31;100057.34;;;25.31;62.95
13690;BME280;6917;52.194;9.894;2022-08-18T13:37:57;100060.94;;;25.31;62.72
13690;BME280;6917;52.194;9.894;2022-08-18T13:40:22;100060.94;;;25.31;62.38
13690;BME280;6917;52.194;9.894;2022-08-18T13:42:48;100057.25;;;25.38;62.79
13690;BME280;6917;52.194;9.894;2022-08-18T13:45:17;100056.97;;;25.29;62.45
13690;BME280;6917;52.194;9.894;2022-08-18T13:47:43;100062.13;;;25.00;62.25
13690;BME280;6917;52.194;9.894;2022-08-18T13:50:10;100069.88;;;25.23;63.01
13690;BME280;6917;52.194;9.894;2022-08-18T13:52:37;100071.53;;;25.16;62.43
13690;BME280;6917;52.194;9.894;2022-08-18T13:55:04;100074.59;;;25.26;63.47
13690;BME280;6917;52.194;9.894;2022-08-18T13:57:31;100069.75;;;25.03;62.68
13690;BME280;6917;52.194;9.894;2022-08-18T13:59:57;100069.44;;;25.24;63.15
13690;BME280;6917;52.194;9.894;2022-08-18T14:02:22;100062.94;;;25.31;62.24
13690;BME280;6917;52.194;9.894;2022-08-18T14:04:47;100064.22;;;25.26;62.37
13690;BME280;6917;52.194;9.894;2022-08-18T14:07:14;100069.44;;;25.24;62.25
13690;BME280;6917;52.194;9.894;2022-08-18T14:09:42;100059.59;;;25.12;63.04
13690;BME280;6917;52.194;9.894;2022-08-18T14:12:16;100060.47;;;24.72;63.50
13690;BME280;6917;52.194;9.894;2022-08-18T14:14:42;100060.94;;;24.67;63.72
13690;BME280;6917;52.194;9.894;2022-08-18T14:17:07;100062.69;;;24.53;63.66
13690;BME280;6917;52.194;9.894;2022-08-18T14:19:33;100057.47;;;24.55;65.71
13690;BME280;6917;52.194;9.894;2022-08-18T14:22:17;100058.91;;;24.71;68.26
13690;BME280;6917;52.194;9.894;2022-08-18T14:25:01;100054.88;;;24.38;69.65
13690;BME280;6917;52.194;9.894;2022-08-18T14:27:45;100049.38;;;24.27;69.17
13690;BME280;6917;52.194;9.894;2022-08-18T14:30:11;100039.44;;;24.22;70.22
13690;BME280;6917;52.194;9.894;2022-08-18T14:32:39;100034.00;;;24.08;69.12
13690;BME280;6917;52.194;9.894;2022-08-18T14:35:07;100023.63;;;24.09;69.99
13690;BME280;6917;52.194;9.894;2022-08-18T14:37:33;100012.25;;;24.33;72.00
13690;BME280;6917;52.194;9.894;2022-08-18T14:39:58;100025.16;;;24.13;72.72
13690;BME280;6917;52.194;9.894;2022-08-18T14:42:24;100019.28;;;24.04;72.20
13690;BME280;6917;52.194;9.894;2022-08-18T14:44:50;100018.19;;;24.36;74.58
13690;BME280;6917;52.194;9.894;2022-08-18T14:47:16;99998.34;;;24.23;73.76
13690;BME280;6917;52.194;9.894;2022-08-18T14:49:41;100000.69;;;24.28;73.66
13690;BME280;6917;52.194;9.894;2022-08-18T14:52:08;99990.44;;;24.18;71.54
13690;BME280;6917;52.194;9.894;2022-08-18T14:54:35;99998.69;;;24.32;72.68
13690;BME280;6917;52.194;9.894;2022-08-18T14:57:01;99999.47;;;24.29;71.89
13690;BME280;6917;52.194;9.894;2022-08-18T14:59:28;100008.25;;;24.35;70.68
13690;BME280;6917;52.194;9.894;2022-08-18T15:01:55;100005.28;;;24.08;69.05
13690;BME280;6917;52.194;9.894;2022-08-18T15:04:21;100003.28;;;24.08;69.13
13690;BME280;6917;52.194;9.894;2022-08-18T15:06:47;100016.78;;;24.13;69.24
13690;BME280;6917;52.194;9.894;2022-08-18T15:09:13;100013.56;;;24.18;69.04
13690;BME280;6917;52.194;9.894;2022-08-18T15:11:38;100008.69;;;24.26;68.88
13690;BME280;6917;52.194;9.894;2022-08-18T15:14:03;100025.84;;;24.24;68.67
13690;BME280;6917;52.194;9.894;2022-08-18T15:16:29;100019.16;;;24.18;67.35
13690;BME280;6917;52.194;9.894;2022-08-18T15:18:58;100023.00;;;24.35;68.00
13690;BME280;6917;52.194;9.894;2022-08-18T15:21:23;100016.66;;;24.31;67.17
13690;BME280;6917;52.194;9.894;2022-08-18T15:24:07;100017.25;;;24.49;66.49